sensor_id;sensor_type;location;lat;lon;timestamp;pressure;altitude;pressure_sealevel;temperature;humidity
70684;BME280;58263;48.146;11.440;2022-08-21T00:01:55;95792.19;;;17.36;82.33
70684;BME280;58263;48.146;11.440;2022-08-21T00:04:21;95788.69;;;17.31;82.77
70684;BME280;58263;48.146;11.440;2022-08-21T00:06:47;95795.19;;;17.24;82.63
70684;BME280;58263;48.146;11.440;2022-08-21T00:09:12;95795.72;;;17.27;83.10
70684;BME280;58263;48.146;11.440;2022-08-21T00:11:38;95788.97;;;17.29;82.48
70684;BME280;58263;48.146;11.440;2022-08-21T00:14:05;95790.31;;;17.21;82.46
70684;BME280;58263;48.146;11.440;2022-08-21T00:16:31;95791.38;;;17.26;82.87
70684;BME280;58263;48.146;11.440;2022-08-21T00:18:57;95794.94;;;17.21;82.43
70684;BME280;58263;48.146;11.440;2022-08-21T00:21:22;95793.31;;;17.25;82.33
70684;BME280;58263;48.146;11.440;2022-08-21T00:23:48;95785.44;;;17.18;82.19
70684;BME280;58263;48.146;11.440;2022-08-21T00:26:13;95788.13;;;17.13;82.20
70684;BME280;58263;48.146;11.440;2022-08-21T00:28:39;95786.78;;;17.16;82.45
70684;BME280;58263;48.146;11.440;2022-08-21T00:31:04;95777.84;;;17.15;82.40
70684;BME280;58263;48.146;11.440;2022-08-21T00:33:30;95786.00;;;17.15;81.98
70684;BME280;58263;48.146;11.440;2022-08-21T00:35:55;95786.25;;;17.09;81.62
70684;BME280;58263;48.146;11.440;2022-08-21T00:38:20;95779.47;;;17.11;82.56
70684;BME280;58263;48.146;11.440;2022-08-21T00:40:51;95785.44;;;17.08;82.37
70684;BME280;58263;48.146;11.440;2022-08-21T00:43:23;95784.91;;;17.11;82.05
70684;BME280;58263;48.146;11.440;2022-08-21T00:45:49;95785.16;;;17.10;82.11
70684;BME280;58263;48.146;11.440;2022-08-21T00:48:15;95782.47;;;17.04;81.81
70684;BME280;58263;48.146;11.440;2022-08-21T00:50:46;95789.75;;;17.04;82.24
70684;BME280;58263;48.146;11.440;2022-08-21T00:53:13;95781.66;;;16.99;81.97
70684;BME280;58263;48.146;11.440;2022-08-21T00:55:40;95791.94;;;17.02;81.14
70684;BME280;58263;48.146;11.440;2022-08-21T00:58:08;95785.97;;;16.95;82.14
70684;BME280;58263;48.146;11.440;2022-08-21T01:00:38;95774.59;;;16.98;81.61
70684;BME280;58263;48.146;11.440;2022-08-21T01:03:10;95775.41;;;16.98;81.65
70684;BME280;58263;48.146;11.440;2022-08-21T01:05:37;95772.69;;;16.93;81.87
70684;BME280;58263;48.146;11.440;2022-08-21T01:08:04;95777.25;;;16.87;82.05
70684;BME280;58263;48.146;11.440;2022-08-21T01:10:31;95773.47;;;16.88;81.93
70684;BME280;58263;48.146;11.440;2022-08-21T01:12:57;95776.19;;;16.88;81.53
70684;BME280;58263;48.146;11.440;2022-08-21T01:15:27;95775.63;;;16.86;81.83
70684;BME280;58263;48.146;11.440;2022-08-21T01:17:55;95768.31;;;16.82;82.70
70684;BME280;58263;48.146;11.440;2022-08-21T01:20:20;95774.00;;;16.80;81.59
70684;BME280;58263;48.146;11.440;2022-08-21T01:22:46;95768.59;;;16.80;81.72
70684;BME280;58263;48.146;11.440;2022-08-21T01:25:14;95765.88;;;16.75;81.69
70684;BME280;58263;48.146;11.440;2022-08-21T01:27:40;95765.06;;;16.75;82.33
70684;BME280;58263;48.146;11.440;2022-08-21T01:30:32;95766.44;;;16.77;81.28
70684;BME280;58263;48.146;11.440;2022-08-21T01:32:59;95763.16;;;16.70;81.88
70684;BME280;58263;48.146;11.440;2022-08-21T01:35:25;95766.13;;;16.68;82.03
70684;BME280;58263;48.146;11.440;2022-08-21T01:37:50;95761.78;;;16.67;81.93
70684;BME280;58263;48.146;11.440;2022-08-21T01:40:16;95770.19;;;16.61;81.68
70684;BME280;58263;48.146;11.440;2022-08-21T01:42:43;95758.81;;;16.64;81.91
70684;BME280;58263;48.146;11.440;2022-08-21T01:45:09;95764.25;;;16.64;82.04
70684;BME280;58263;48.146;11.440;2022-08-21T01:47:35;95764.25;;;16.64;81.85
70684;BME280;58263;48.146;11.440;2022-08-21T01:50:03;95764.25;;;16.64;80.82
70684;BME280;58263;48.146;11.440;2022-08-21T01:52:29;95771.28;;;16.60;81.83
70684;BME280;58263;48.146;11.440;2022-08-21T01:54:54;95765.28;;;16.58;81.41
70684;BME280;58263;48.146;11.440;2022-08-21T01:57:20;95774.25;;;16.58;81.26
70684;BME280;58263;48.146;11.440;2022-08-21T01:59:45;95760.97;;;16.62;81.12
70684;BME280;58263;48.146;11.440;2022-08-21T02:02:10;95765.31;;;16.52;81.34
70684;BME280;58263;48.146;11.440;2022-08-21T02:04:36;95757.19;;;16.52;80.78
70684;BME280;58263;48.146;11.440;2022-08-21T02:07:02;95758.25;;;16.46;81.54
70684;BME280;58263;48.146;11.440;2022-08-21T02:09:27;95759.34;;;16.50;81.13
70684;BME280;58263;48.146;11.440;2022-08-21T02:11:53;95750.13;;;16.46;81.57
70684;BME280;58263;48.146;11.440;2022-08-21T02:14:19;95744.16;;;16.44;80.77
70684;BME280;58263;48.146;11.440;2022-08-21T02:16:45;95747.97;;;16.43;81.27
70684;BME280;58263;48.146;11.440;2022-08-21T02:19:12;95739.81;;;16.38;81.89
70684;BME280;58263;48.146;11.440;2022-08-21T02:21:39;95740.09;;;16.36;81.33
70684;BME280;58263;48.146;11.440;2022-08-21T02:24:05;95744.13;;;16.34;80.92
70684;BME280;58263;48.146;11.440;2022-08-21T02:26:30;95741.41;;;16.29;81.46
70684;BME280;58263;48.146;11.440;2022-08-21T02:28:56;95743.06;;;16.35;81.17
70684;BME280;58263;48.146;11.440;2022-08-21T02:31:21;95741.44;;;16.34;81.71
70684;BME280;58263;48.146;11.440;2022-08-21T02:33:47;95749.00;;;16.32;81.62
70684;BME280;58263;48.146;11.440;2022-08-21T02:36:12;95744.66;;;16.26;81.47
70684;BME280;58263;48.146;11.440;2022-08-21T02:38:39;95756.84;;;16.28;80.86
70684;BME280;58263;48.146;11.440;2022-08-21T02:41:07;95742.75;;;16.26;80.93
70684;BME280;58263;48.146;11.440;2022-08-21T02:43:33;95743.59;;;16.27;81.19
70684;BME280;58263;48.146;11.440;2022-08-21T02:45:59;95749.00;;;16.27;81.00
70684;BME280;58263;48.146;11.440;2022-08-21T02:48:27;95752.22;;;16.18;81.08
70684;BME280;58263;48.146;11.440;2022-08-21T02:50:57;95747.34;;;16.20;81.44
70684;BME280;58263;48.146;11.440;2022-08-21T02:53:23;95748.16;;;16.16;81.32
70684;BME280;58263;48.146;11.440;2022-08-21T02:55:50;95743.78;;;16.10;81.10
70684;BME280;58263;48.146;11.440;2022-08-21T02:58:19;95739.22;;;16.10;81.34
70684;BME280;58263;48.146;11.440;2022-08-21T03:00:45;95735.13;;;16.08;81.42
70684;BME280;58263;48.146;11.440;2022-08-21T03:03:11;95736.47;;;16.05;81.59
70684;BME280;58263;48.146;11.440;2022-08-21T03:05:37;95741.91;;;16.05;81.39
70684;BME280;58263;48.146;11.440;2022-08-21T03:08:05;95736.47;;;16.05;81.78
70684;BME280;58263;48.146;11.440;2022-08-21T03:10:35;95741.91;;;16.05;81.13
70684;BME280;58263;48.146;11.440;2022-08-21T03:13:00;95747.81;;;16.02;81.34
70684;BME280;58263;48.146;11.440;2022-08-21T03:15:27;95742.41;;;16.02;80.71
70684;BME280;58263;48.146;11.440;2022-08-21T03:17:53;95744.28;;;15.96;81.31
70684;BME280;58263;48.146;11.440;2022-08-21T03:20:22;95739.94;;;15.90;80.67
70684;BME280;58263;48.146;11.440;2022-08-21T03:22:49;95742.38;;;15.92;80.84
70684;BME280;58263;48.146;11.440;2022-08-21T03:25:15;95743.97;;;15.82;80.84
70684;BME280;58263;48.146;11.440;2022-08-21T03:27:41;95748.31;;;15.88;80.03
70684;BME280;58263;48.146;11.440;2022-08-21T03:30:07;95746.41;;;15.84;80.27
70684;BME280;58263;48.146;11.440;2022-08-21T03:32:33;95740.19;;;15.83;80.06
70684;BME280;58263;48.146;11.440;2022-08-21T03:35:00;95739.06;;;15.79;80.81
70684;BME280;58263;48.146;11.440;2022-08-21T03:37:27;95737.91;;;15.70;80.88
70684;BME280;58263;48.146;11.440;2022-08-21T03:39:52;95739.28;;;15.72;81.20
70684;BME280;58263;48.146;11.440;2022-08-21T03:42:18;95742.50;;;15.64;81.26
70684;BME280;58263;48.146;11.440;2022-08-21T03:44:43;95741.69;;;15.69;80.96
70684;BME280;58263;48.146;11.440;2022-08-21T03:47:09;95745.19;;;15.64;80.98
70684;BME280;58263;48.146;11.440;2022-08-21T03:49:35;95746.00;;;15.65;80.76
70684;BME280;58263;48.146;11.440;2022-08-21T03:52:01;95751.94;;;15.62;80.85
70684;BME280;58263;48.146;11.440;2022-08-21T03:54:27;95751.09;;;15.56;81.20
70684;BME280;58263;48.146;11.440;2022-08-21T03:56:52;95755.69;;;15.55;81.82
70684;BME280;58263;48.146;11.440;2022-08-21T03:59:18;95755.69;;;15.55;81.69
70684;BME280;58263;48.146;11.440;2022-08-21T04:01:57;95756.78;;;15.60;80.42
70684;BME280;58263;48.146;11.440;2022-08-21T04:04:23;95761.09;;;15.55;80.91
70684;BME280;58263;48.146;11.440;2022-08-21T04:06:49;95761.63;;;15.52;81.24
70684;BME280;58263;48.146;11.440;2022-08-21T04:09:15;95755.69;;;15.55;80.67
70684;BME280;58263;48.146;11.440;2022-08-21T04:11:40;95755.09;;;15.48;81.28
70684;BME280;58263;48.146;11.440;2022-08-21T04:14:06;95752.94;;;15.45;81.45
70684;BME280;58263;48.146;11.440;2022-08-21T04:16:31;95756.38;;;15.35;81.61
70684;BME280;58263;48.146;11.440;2022-08-21T04:18:56;95759.38;;;15.39;81.38
70684;BME280;58263;48.146;11.440;2022-08-21T04:21:23;95761.00;;;15.40;81.12
70684;BME280;58263;48.146;11.440;2022-08-21T04:23:49;95762.94;;;15.45;80.81
70684;BME280;58263;48.146;11.440;2022-08-21T04:26:14;95762.06;;;15.39;81.79
70684;BME280;58263;48.146;11.440;2022-08-21T04:28:41;95764.53;;;15.41;81.71
70684;BME280;58263;48.146;11.440;2022-08-21T04:31:07;95769.13;;;15.40;80.88
70684;BME280;58263;48.146;11.440;2022-08-21T04:33:33;95768.00;;;15.36;81.87
70684;BME280;58263;48.146;11.440;2022-08-21T04:35:58;95771.28;;;15.38;81.39
70684;BME280;58263;48.146;11.440;2022-08-21T04:38:23;95765.34;;;15.41;81.55
70684;BME280;58263;48.146;11.440;2022-08-21T04:40:50;95775.09;;;15.42;81.92
70684;BME280;58263;48.146;11.440;2022-08-21T04:43:16;95771.28;;;15.38;81.66
70684;BME280;58263;48.146;11.440;2022-08-21T04:45:44;95778.28;;;15.39;81.60
70684;BME280;58263;48.146;11.440;2022-08-21T04:48:10;95775.56;;;15.34;82.24
70684;BME280;58263;48.146;11.440;2022-08-21T04:53:10;95778.06;;;15.41;82.06
70684;BME280;58263;48.146;11.440;2022-08-21T04:55:37;95774.53;;;15.40;81.77
70684;BME280;58263;48.146;11.440;2022-08-21T04:58:05;95776.69;;;15.38;81.87
70684;BME280;58263;48.146;11.440;2022-08-21T05:00:31;95780.22;;;15.44;82.04
70684;BME280;58263;48.146;11.440;2022-08-21T05:02:57;95782.97;;;15.49;81.93
70684;BME280;58263;48.146;11.440;2022-08-21T05:05:25;95791.31;;;15.47;81.59
70684;BME280;58263;48.146;11.440;2022-08-21T05:07:51;95788.13;;;15.50;82.33
70684;BME280;58263;48.146;11.440;2022-08-21T05:10:18;95791.09;;;15.49;81.98
70684;BME280;58263;48.146;11.440;2022-08-21T05:12:44;95789.72;;;15.46;82.44
70684;BME280;58263;48.146;11.440;2022-08-21T05:15:11;95784.56;;;15.50;81.49
70684;BME280;58263;48.146;11.440;2022-08-21T05:17:37;95783.78;;;15.49;81.66
70684;BME280;58263;48.146;11.440;2022-08-21T05:20:03;95788.16;;;15.61;81.07
70684;BME280;58263;48.146;11.440;2022-08-21T05:22:29;95787.66;;;15.69;81.21
70684;BME280;58263;48.146;11.440;2022-08-21T05:24:54;95787.16;;;15.72;81.70
70684;BME280;58263;48.146;11.440;2022-08-21T05:27:19;95789.94;;;15.82;81.31
70684;BME280;58263;48.146;11.440;2022-08-21T05:29:44;95786.19;;;15.88;80.82
70684;BME280;58263;48.146;11.440;2022-08-21T05:32:11;95792.97;;;15.91;81.56
70684;BME280;58263;48.146;11.440;2022-08-21T05:34:37;95789.88;;;15.77;81.56
70684;BME280;58263;48.146;11.440;2022-08-21T05:37:02;95794.59;;;15.87;81.67
70684;BME280;58263;48.146;11.440;2022-08-21T05:39:28;95792.16;;;15.91;81.45
70684;BME280;58263;48.146;11.440;2022-08-21T05:41:53;95799.75;;;15.99;81.28
70684;BME280;58263;48.146;11.440;2022-08-21T05:44:18;95797.06;;;16.04;81.23
70684;BME280;58263;48.146;11.440;2022-08-21T05:46:44;95794.13;;;16.11;81.99
70684;BME280;58263;48.146;11.440;2022-08-21T05:49:10;95799.56;;;16.21;81.23
70684;BME280;58263;48.146;11.440;2022-08-21T05:51:36;95806.91;;;16.26;81.25
70684;BME280;58263;48.146;11.440;2022-08-21T05:54:02;95806.63;;;16.22;80.77
70684;BME280;58263;48.146;11.440;2022-08-21T05:56:28;95803.44;;;16.41;81.83
70684;BME280;58263;48.146;11.440;2022-08-21T05:58:53;95799.97;;;16.55;81.34
70684;BME280;58263;48.146;11.440;2022-08-21T06:01:18;95803.78;;;16.65;82.17
70684;BME280;58263;48.146;11.440;2022-08-21T06:03:44;95800.53;;;16.78;82.27
70684;BME280;58263;48.146;11.440;2022-08-21T06:06:09;95799.19;;;16.86;82.15
70684;BME280;58263;48.146;11.440;2022-08-21T06:08:35;95796.53;;;17.01;81.56
70684;BME280;58263;48.146;11.440;2022-08-21T06:11:01;95799.78;;;17.19;81.64
70684;BME280;58263;48.146;11.440;2022-08-21T06:13:27;95803.31;;;17.30;80.05
70684;BME280;58263;48.146;11.440;2022-08-21T06:16:07;95803.03;;;17.52;79.79
70684;BME280;58263;48.146;11.440;2022-08-21T06:18:32;95801.66;;;17.70;79.61
70684;BME280;58263;48.146;11.440;2022-08-21T06:20:58;95803.81;;;17.78;78.63
70684;BME280;58263;48.146;11.440;2022-08-21T06:23:23;95801.34;;;17.97;78.52
70684;BME280;58263;48.146;11.440;2022-08-21T06:25:49;95810.00;;;18.10;77.65
70684;BME280;58263;48.146;11.440;2022-08-21T06:28:14;95812.63;;;18.25;76.99
70684;BME280;58263;48.146;11.440;2022-08-21T06:30:39;95804.75;;;18.34;76.13
70684;BME280;58263;48.146;11.440;2022-08-21T06:33:05;95805.25;;;18.41;75.50
70684;BME280;58263;48.146;11.440;2022-08-21T06:35:32;95804.94;;;18.53;75.30
70684;BME280;58263;48.146;11.440;2022-08-21T06:37:58;95804.06;;;18.63;74.30
70684;BME280;58263;48.146;11.440;2022-08-21T06:40:28;95807.56;;;18.68;73.24
70684;BME280;58263;48.146;11.440;2022-08-21T06:42:53;95806.38;;;18.80;73.67
70684;BME280;58263;48.146;11.440;2022-08-21T06:45:19;95805.72;;;19.03;72.33
70684;BME280;58263;48.146;11.440;2022-08-21T06:47:45;95802.63;;;19.15;70.98
70684;BME280;58263;48.146;11.440;2022-08-21T06:50:10;95795.66;;;19.38;71.04
70684;BME280;58263;48.146;11.440;2022-08-21T06:52:36;95793.03;;;19.57;69.75
70684;BME280;58263;48.146;11.440;2022-08-21T06:55:04;95800.47;;;19.76;69.98
70684;BME280;58263;48.146;11.440;2022-08-21T06:57:29;95797.91;;;19.90;69.22
70684;BME280;58263;48.146;11.440;2022-08-21T06:59:54;95803.41;;;20.09;69.58
70684;BME280;58263;48.146;11.440;2022-08-21T07:02:20;95797.38;;;20.12;67.42
70684;BME280;58263;48.146;11.440;2022-08-21T07:04:45;95802.66;;;20.27;66.89
70684;BME280;58263;48.146;11.440;2022-08-21T07:07:11;95799.00;;;20.37;67.96
70684;BME280;58263;48.146;11.440;2022-08-21T07:09:36;95797.59;;;20.40;65.85
70684;BME280;58263;48.146;11.440;2022-08-21T07:12:02;95787.09;;;20.52;65.67
70684;BME280;58263;48.146;11.440;2022-08-21T07:14:27;95788.84;;;20.62;65.77
70684;BME280;58263;48.146;11.440;2022-08-21T07:16:52;95791.91;;;20.80;64.27
70684;BME280;58263;48.146;11.440;2022-08-21T07:19:18;95783.22;;;20.97;64.79
70684;BME280;58263;48.146;11.440;2022-08-21T07:21:43;95783.84;;;21.07;64.06
70684;BME280;58263;48.146;11.440;2022-08-21T07:24:09;95784.09;;;21.11;62.77
70684;BME280;58263;48.146;11.440;2022-08-21T07:26:34;95777.44;;;21.17;62.57
70684;BME280;58263;48.146;11.440;2022-08-21T07:29:00;95777.31;;;21.41;61.72
70684;BME280;58263;48.146;11.440;2022-08-21T07:31:26;95773.75;;;21.60;59.71
70684;BME280;58263;48.146;11.440;2022-08-21T07:33:52;95777.53;;;21.78;60.95
70684;BME280;58263;48.146;11.440;2022-08-21T07:36:18;95775.00;;;21.82;60.15
70684;BME280;58263;48.146;11.440;2022-08-21T07:38:43;95779.75;;;22.04;59.96
70684;BME280;58263;48.146;11.440;2022-08-21T07:41:15;95776.53;;;22.16;59.85
70684;BME280;58263;48.146;11.440;2022-08-21T07:43:41;95779.69;;;22.37;59.62
70684;BME280;58263;48.146;11.440;2022-08-21T07:46:06;95776.00;;;22.55;59.20
70684;BME280;58263;48.146;11.440;2022-08-21T07:48:31;95773.72;;;22.71;55.74
70684;BME280;58263;48.146;11.440;2022-08-21T07:50:58;95779.03;;;22.68;56.97
70684;BME280;58263;48.146;11.440;2022-08-21T07:53:23;95775.94;;;22.83;56.75
70684;BME280;58263;48.146;11.440;2022-08-21T07:55:48;95770.09;;;22.99;56.17
70684;BME280;58263;48.146;11.440;2022-08-21T07:58:14;95767.19;;;22.95;57.31
70684;BME280;58263;48.146;11.440;2022-08-21T08:00:40;95770.09;;;23.12;55.30
70684;BME280;58263;48.146;11.440;2022-08-21T08:03:05;95770.16;;;23.21;54.81
70684;BME280;58263;48.146;11.440;2022-08-21T08:05:31;95766.66;;;23.52;54.94
70684;BME280;58263;48.146;11.440;2022-08-21T08:07:57;95763.72;;;23.49;53.69
70684;BME280;58263;48.146;11.440;2022-08-21T08:10:23;95774.34;;;23.73;54.00
70684;BME280;58263;48.146;11.440;2022-08-21T08:12:49;95764.63;;;23.98;54.39
70684;BME280;58263;48.146;11.440;2022-08-21T08:15:19;95766.66;;;24.15;52.86
70684;BME280;58263;48.146;11.440;2022-08-21T08:17:44;95772.19;;;24.41;53.29
70684;BME280;58263;48.146;11.440;2022-08-21T08:20:11;95770.03;;;24.70;52.29
70684;BME280;58263;48.146;11.440;2022-08-21T08:22:38;95767.31;;;24.87;52.70
70684;BME280;58263;48.146;11.440;2022-08-21T08:25:05;95765.69;;;25.04;50.90
70684;BME280;58263;48.146;11.440;2022-08-21T08:27:31;95765.22;;;25.10;50.70
70684;BME280;58263;48.146;11.440;2022-08-21T08:29:56;95764.75;;;25.35;51.54
70684;BME280;58263;48.146;11.440;2022-08-21T08:32:23;95757.94;;;25.41;49.72
70684;BME280;58263;48.146;11.440;2022-08-21T08:34:48;95764.75;;;25.35;49.11
70684;BME280;58263;48.146;11.440;2022-08-21T08:37:17;95752.28;;;25.46;48.85
70684;BME280;58263;48.146;11.440;2022-08-21T08:39:43;95752.56;;;25.62;48.22
70684;BME280;58263;48.146;11.440;2022-08-21T08:42:12;95755.88;;;25.85;46.98
70684;BME280;58263;48.146;11.440;2022-08-21T08:44:42;95756.84;;;25.89;44.72
70684;BME280;58263;48.146;11.440;2022-08-21T08:47:09;95749.34;;;25.98;46.34
70684;BME280;58263;48.146;11.440;2022-08-21T08:50:00;95749.44;;;26.20;45.04
70684;BME280;58263;48.146;11.440;2022-08-21T08:52:52;95752.03;;;26.16;45.43
70684;BME280;58263;48.146;11.440;2022-08-21T08:55:25;95747.91;;;26.40;45.13
70684;BME280;58263;48.146;11.440;2022-08-21T08:57:53;95747.03;;;26.78;46.43
70684;BME280;58263;48.146;11.440;2022-08-21T09:00:21;95749.03;;;26.90;45.82
70684;BME280;58263;48.146;11.440;2022-08-21T09:02:47;95742.44;;;27.03;43.43
70684;BME280;58263;48.146;11.440;2022-08-21T09:05:29;95742.88;;;27.26;44.40
70684;BME280;58263;48.146;11.440;2022-08-21T09:14:18;95741.28;;;28.17;42.01
70684;BME280;58263;48.146;11.440;2022-08-21T09:16:55;95735.97;;;28.74;41.99
70684;BME280;58263;48.146;11.440;2022-08-21T09:27:18;95737.38;;;28.06;43.38
70684;BME280;58263;48.146;11.440;2022-08-21T09:29:47;95743.31;;;27.49;42.84
70684;BME280;58263;48.146;11.440;2022-08-21T09:32:30;95740.53;;;27.71;43.63
70684;BME280;58263;48.146;11.440;2022-08-21T09:35:00;95738.25;;;27.97;43.79
70684;BME280;58263;48.146;11.440;2022-08-21T09:37:28;95735.88;;;28.08;43.28
70684;BME280;58263;48.146;11.440;2022-08-21T09:39:54;95727.25;;;28.22;43.27
70684;BME280;58263;48.146;11.440;2022-08-21T09:42:29;95726.59;;;28.13;42.45
70684;BME280;58263;48.146;11.440;2022-08-21T09:45:15;95730.44;;;27.87;44.22
70684;BME280;58263;48.146;11.440;2022-08-21T09:47:41;95732.09;;;28.38;44.36
70684;BME280;58263;48.146;11.440;2022-08-21T09:50:15;95725.25;;;28.72;43.77
70684;BME280;58263;48.146;11.440;2022-08-21T09:52:47;95725.69;;;29.15;42.86
70684;BME280;58263;48.146;11.440;2022-08-21T09:58:19;95722.88;;;28.46;43.12
70684;BME280;58263;48.146;11.440;2022-08-21T10:00:56;95718.41;;;28.04;44.88
70684;BME280;58263;48.146;11.440;2022-08-21T10:03:22;95718.53;;;28.08;44.71
70684;BME280;58263;48.146;11.440;2022-08-21T10:06:02;95715.19;;;28.27;43.34
70684;BME280;58263;48.146;11.440;2022-08-21T10:08:31;95718.31;;;28.25;44.35
70684;BME280;58263;48.146;11.440;2022-08-21T10:11:14;95714.31;;;27.64;45.21
70684;BME280;58263;48.146;11.440;2022-08-21T10:14:08;95718.09;;;27.26;43.90
70684;BME280;58263;48.146;11.440;2022-08-21T10:19:43;95717.59;;;26.70;47.51
70684;BME280;58263;48.146;11.440;2022-08-21T10:28:15;95703.44;;;26.80;47.18
70684;BME280;58263;48.146;11.440;2022-08-21T10:30:52;95703.47;;;27.47;45.84
70684;BME280;58263;48.146;11.440;2022-08-21T10:36:19;95704.03;;;27.07;44.50
70684;BME280;58263;48.146;11.440;2022-08-21T10:39:31;95699.84;;;27.01;46.49
70684;BME280;58263;48.146;11.440;2022-08-21T10:42:43;95700.00;;;26.83;44.63
70684;BME280;58263;48.146;11.440;2022-08-21T10:45:08;95704.28;;;27.14;43.69
70684;BME280;58263;48.146;11.440;2022-08-21T10:47:51;95700.09;;;27.75;43.79
70684;BME280;58263;48.146;11.440;2022-08-21T10:50:39;95696.91;;;28.22;42.64
70684;BME280;58263;48.146;11.440;2022-08-21T10:55:56;95701.22;;;28.85;43.00
70684;BME280;58263;48.146;11.440;2022-08-21T10:58:29;95690.84;;;29.10;39.06
70684;BME280;58263;48.146;11.440;2022-08-21T11:01:00;95692.59;;;29.03;39.24
70684;BME280;58263;48.146;11.440;2022-08-21T11:03:33;95694.69;;;28.65;39.20
70684;BME280;58263;48.146;11.440;2022-08-21T11:08:50;95672.50;;;29.30;36.50
70684;BME280;58263;48.146;11.440;2022-08-21T11:11:31;95679.28;;;29.49;37.49
70684;BME280;58263;48.146;11.440;2022-08-21T11:14:03;95679.13;;;29.74;36.50
70684;BME280;58263;48.146;11.440;2022-08-21T11:16:37;95671.13;;;30.72;35.89
70684;BME280;58263;48.146;11.440;2022-08-21T11:19:18;95669.63;;;31.13;35.00
70684;BME280;58263;48.146;11.440;2022-08-21T11:21:59;95662.06;;;30.20;36.81
70684;BME280;58263;48.146;11.440;2022-08-21T11:24:39;95675.97;;;29.27;38.28
70684;BME280;58263;48.146;11.440;2022-08-21T11:29:59;95676.91;;;28.25;41.36
70684;BME280;58263;48.146;11.440;2022-08-21T11:37:45;95664.41;;;28.81;37.94
70684;BME280;58263;48.146;11.440;2022-08-21T11:45:59;95656.94;;;29.86;36.04
70684;BME280;58263;48.146;11.440;2022-08-21T11:48:52;95667.19;;;30.01;34.84
70684;BME280;58263;48.146;11.440;2022-08-21T11:51:53;95650.84;;;29.96;34.65
70684;BME280;58263;48.146;11.440;2022-08-21T11:59:43;95653.31;;;28.93;35.96
70684;BME280;58263;48.146;11.440;2022-08-21T12:02:14;95646.97;;;28.93;36.19
70684;BME280;58263;48.146;11.440;2022-08-21T12:04:55;95646.84;;;29.17;35.54
70684;BME280;58263;48.146;11.440;2022-08-21T12:07:48;95642.56;;;29.64;35.89
70684;BME280;58263;48.146;11.440;2022-08-21T12:10:16;95639.88;;;29.84;36.02
70684;BME280;58263;48.146;11.440;2022-08-21T12:12:44;95645.34;;;29.20;35.73
70684;BME280;58263;48.146;11.440;2022-08-21T12:25:43;95631.63;;;27.77;38.42
70684;BME280;58263;48.146;11.440;2022-08-21T12:28:14;95632.09;;;28.16;36.33
70684;BME280;58263;48.146;11.440;2022-08-21T12:30:43;95628.31;;;28.61;36.28
70684;BME280;58263;48.146;11.440;2022-08-21T12:33:32;95621.44;;;28.55;36.33
70684;BME280;58263;48.146;11.440;2022-08-21T12:36:07;95630.00;;;28.38;36.94
70684;BME280;58263;48.146;11.440;2022-08-21T12:38:49;95636.59;;;28.08;37.33
70684;BME280;58263;48.146;11.440;2022-08-21T12:41:19;95625.78;;;27.91;38.23
70684;BME280;58263;48.146;11.440;2022-08-21T12:43:53;95616.56;;;27.99;38.74
70684;BME280;58263;48.146;11.440;2022-08-21T12:46:27;95610.91;;;28.32;37.64
70684;BME280;58263;48.146;11.440;2022-08-21T12:48:58;95611.53;;;28.66;37.70
70684;BME280;58263;48.146;11.440;2022-08-21T12:51:30;95605.31;;;28.57;36.83
70684;BME280;58263;48.146;11.440;2022-08-21T12:53:58;95618.34;;;28.04;36.56
70684;BME280;58263;48.146;11.440;2022-08-21T12:56:33;95601.78;;;27.91;37.56
70684;BME280;58263;48.146;11.440;2022-08-21T12:59:05;95606.34;;;27.99;37.93
70684;BME280;58263;48.146;11.440;2022-08-21T13:04:02;95598.56;;;27.77;37.83
70684;BME280;58263;48.146;11.440;2022-08-21T13:06:32;95594.50;;;28.24;37.81
70684;BME280;58263;48.146;11.440;2022-08-21T13:09:05;95600.44;;;28.38;37.20
70684;BME280;58263;48.146;11.440;2022-08-21T13:11:32;95596.88;;;28.38;37.31
70684;BME280;58263;48.146;11.440;2022-08-21T13:14:00;95592.91;;;28.23;37.37
70684;BME280;58263;48.146;11.440;2022-08-21T13:16:28;95590.97;;;27.98;37.74
70684;BME280;58263;48.146;11.440;2022-08-21T13:19:00;95599.94;;;27.95;38.35
70684;BME280;58263;48.146;11.440;2022-08-21T13:21:38;95600.63;;;27.92;37.73
70684;BME280;58263;48.146;11.440;2022-08-21T13:24:32;95592.03;;;27.81;38.91
70684;BME280;58263;48.146;11.440;2022-08-21T13:26:59;95592.94;;;27.73;37.50
70684;BME280;58263;48.146;11.440;2022-08-21T13:29:31;95588.00;;;27.54;37.98
70684;BME280;58263;48.146;11.440;2022-08-21T13:31:59;95581.56;;;27.38;37.06
70684;BME280;58263;48.146;11.440;2022-08-21T13:34:29;95582.72;;;27.49;37.63
70684;BME280;58263;48.146;11.440;2022-08-21T13:36:58;95579.41;;;27.43;38.43
70684;BME280;58263;48.146;11.440;2022-08-21T13:39:24;95579.44;;;27.22;37.67
70684;BME280;58263;48.146;11.440;2022-08-21T13:41:54;95578.66;;;27.09;38.53
70684;BME280;58263;48.146;11.440;2022-08-21T13:44:40;95579.53;;;27.01;40.29
70684;BME280;58263;48.146;11.440;2022-08-21T13:47:06;95578.25;;;26.86;39.88
70684;BME280;58263;48.146;11.440;2022-08-21T13:49:37;95571.69;;;26.78;40.75
70684;BME280;58263;48.146;11.440;2022-08-21T13:52:04;95572.38;;;26.75;41.07
70684;BME280;58263;48.146;11.440;2022-08-21T13:54:38;95568.69;;;26.71;39.95
70684;BME280;58263;48.146;11.440;2022-08-21T13:57:36;95567.38;;;27.02;39.84
70684;BME280;58263;48.146;11.440;2022-08-21T14:02:41;95574.22;;;27.79;38.00
70684;BME280;58263;48.146;11.440;2022-08-21T14:05:15;95567.28;;;27.97;36.00
70684;BME280;58263;48.146;11.440;2022-08-21T14:07:41;95571.88;;;28.18;36.92
70684;BME280;58263;48.146;11.440;2022-08-21T14:10:17;95570.44;;;28.37;35.86
70684;BME280;58263;48.146;11.440;2022-08-21T14:12:52;95569.78;;;28.56;36.45